Weather at Royal Childrens Hospital Helipad

Public forecast

Using degrees Celsius for public forecast. Weather courtesy of forecast.io.

Closest aviation weather report (METAR) to Royal Childrens Hospital Helipad

Closest report is Melbourne International Airport, 8.9 nm (16.5 km) NW.

2024/06/15 04:00 (retrieved 38 minutes ago)

YMML 150400Z 17011KT 9999 FEW022 SCT025 13/07 Q1021 RF000/0000

Closest aviation forecast (TAF) to Royal Childrens Hospital Helipad

Forecast is more than 12 hours old.

Closest forecast is Koumac Airport, 1,442.0 nm (2,670.5 km) NE.

2024/06/13 18:00 Ammendment (retrieved 1 day ago)

TAF AMD NWWE 131700Z 1318/1418 CNL TAF AMD NWWK 131700Z 1318/1418 CNL